Portada
METAR-TAF:

METAR-TAF

Aeropuertos :

Aeropuerto Internacional Salgado Filho

Porto Alegre, Río Grande del Sur, Brasil

latitud: 30-00S, longitud: 051-11W, altitud: 3 m

Observación

El informe se hizo hace 1 hora y 2 minutos, a las 22:00 UTC
Viento 7 kt del este-sureste
Temperatura 18°C
Humedad 77%
Presión 1023 hPa
Visibilidad: 9000 m

METAR: SBPA 172200Z 12007KT 9000 NSC 18/14 Q1023

Hora: 20:02 (23:02 UTC)

Pronóstico

El informe se hizo hace 6 horas y 47 minutos, a las 16:15 UTC
Pronóstico válido del 17 a las 18 UTC al 18 a las 18 UTC
Viento 6 kt del este
Visibilidad 10 km o más
sin nubes por debajo de 1500 m y sin presencia de cumulonimbus.
Probabilidad 40% :
Temporalmente
del 18 a las 07 UTC al 18 a las 11 UTC
Viento kt del norte
Visibilidad: 4000 m
neblina

TAF: SBPA 171615Z 1718/1818 09006KT CAVOK TN10/1808Z TX25/1818Z PROB40 TEMPO 1807/1811 00000KT 4000 BR RMK PCX

Observaciones y pronósticos meteorológicos de más de 4000 aeropuertos (mensajes METAR y TAF).

Los puntos amarillos y rojos representan las estaciones disponibles.

Ponga el ratón en el punto deseado para ver el nombre de la estación.

Haga clic para ver las observaciones y los pronósticos meteorológicos.

Para cambiar el mapa : haga clic en los botones verdes con una cruz de color negro para hacer un zoom, en el botón verde con un guión para alejar o en las flechas verdes para mapas adyacentes.


METAR-TAF: